MUC | München Airways

 METAR UND TAF INFORMATION

METAR FOR LGKO
ADDS - METARS form results

(0842 UTC 19 March 2019)
Data provider http://aviationweather.gov/metar/data/
 
METAR text: LGKO 190820Z 14005KT 9999 FEW016 BKN025 15/12 Q1018
Conditions at: LGKO (KOS AIRPORT , GR) observed 0820 UTC 19 March 2019
Temperature: 15.0°C (59°F)
Dewpoint: 12.0°C (54°F) [RH = 82%]
Pressure (altimeter): 30.06 inches Hg (1018.0 mb)
Winds: from the SE (140 degrees) at 6 MPH (5 knots; 2.6 m/s)
Visibility: 6 or more miles (10+ km)
Ceiling: 2500 feet AGL
Clouds: few clouds at 1600 feet AGL
broken clouds at 2500 feet AGL
Weather: no significant weather observed at this time

METAR text: LGKO 190750Z VRB02KT 9999 FEW016 BKN025 15/12 Q1018
Conditions at: LGKO (KOS AIRPORT , GR) observed 0750 UTC 19 March 2019
Temperature: 15.0°C (59°F)
Dewpoint: 12.0°C (54°F) [RH = 82%]
Pressure (altimeter): 30.06 inches Hg (1018.0 mb)
Winds: variable direction winds at 2 MPH (2 knots; 1.0 m/s)
Visibility: 6 or more miles (10+ km)
Ceiling: 2500 feet AGL
Clouds: few clouds at 1600 feet AGL
broken clouds at 2500 feet AGL
Weather: no significant weather observed at this time

Forecast for: AMD
Text: TAF AMD LGKO 190644Z 1906/2006 12008KT 9999 FEW006 BKN018
Forecast period: 0600 UTC 19 March 2019 to 0600 UTC 20 March 2019
Forecast type: FROM: standard forecast or significant change
Winds: from the ESE (120 degrees) at 9 MPH (8 knots; 4.1 m/s)
Visibility: 6 or more miles 10+ km)
Ceiling: 1800 feet AGL
Clouds: few clouds at 600 feet AGL
broken clouds at 1800 feet AGL
Weather: no significant weather forecast for this period
Text: PROB30 2000/2006 5000 BR SCT010
Forecast period: 0000 to 0600 UTC 20 March 2019
Forecast type: PROBABLE: 30 percent likelihood of the following during this time
Visibility: 3 miles (5 km)
Ceiling: at least 12,000 feet AGL
Clouds: scattered clouds at 1000 feet AGL
Weather: BR  (mist)

 FLUGHAFENKARTE

 RUNWAY INFORMATION
Runway 14 Runway length 7841 ft Runway width 148 ft
Runway elevation 412 ft Runway displaced threshold 0 ft Runway heading 148
Runway 32 Runway length 7841 ft Runway width 148 ft
Runway elevation 373 ft Runway displaced threshold 0 ft Runway heading 328

 AIRPORT FREQUENCIES
Type A/G Name IPPOKRATIS Frequency 563.7 MHZ
Type APP Name APP Frequency 119.95 MHZ
Type ATIS Name ATIS Frequency 126.95 MHZ
Type TWR Name IPPOKRATIS Frequency 121.05 MHZ

 AIRPORT NEAR NAVIGATION AIDS
Type VOR-DME Name Kos Frequency 109000 KHZ
Type NDB Name Kos Frequency 311 KHZ